sensor_id;sensor_type;location;lat;lon;timestamp;temperature;humidity
19552;DHT22;9921;47.186;9.778;2022-07-30T00:00:08;17.10;99.90
19552;DHT22;9921;47.186;9.778;2022-07-30T00:02:36;17.10;99.90
19552;DHT22;9921;47.186;9.778;2022-07-30T00:05:03;17.00;99.90
19552;DHT22;9921;47.186;9.778;2022-07-30T00:07:30;17.10;99.90
19552;DHT22;9921;47.186;9.778;2022-07-30T00:09:57;17.00;99.90
19552;DHT22;9921;47.186;9.778;2022-07-30T00:12:24;16.90;99.90
19552;DHT22;9921;47.186;9.778;2022-07-30T00:14:52;16.90;99.90
19552;DHT22;9921;47.186;9.778;2022-07-30T00:17:19;17.00;99.90
19552;DHT22;9921;47.186;9.778;2022-07-30T00:19:46;17.10;99.90
19552;DHT22;9921;47.186;9.778;2022-07-30T00:22:13;17.10;99.90
19552;DHT22;9921;47.186;9.778;2022-07-30T00:24:40;17.00;99.90
19552;DHT22;9921;47.186;9.778;2022-07-30T00:27:07;17.00;99.90
19552;DHT22;9921;47.186;9.778;2022-07-30T00:29:33;17.00;99.90
19552;DHT22;9921;47.186;9.778;2022-07-30T00:32:02;17.00;99.90
19552;DHT22;9921;47.186;9.778;2022-07-30T00:34:29;17.00;99.90
19552;DHT22;9921;47.186;9.778;2022-07-30T00:36:56;17.00;99.90
19552;DHT22;9921;47.186;9.778;2022-07-30T00:39:23;17.00;99.90
19552;DHT22;9921;47.186;9.778;2022-07-30T00:41:58;17.10;99.90
19552;DHT22;9921;47.186;9.778;2022-07-30T00:44:26;17.20;99.90
19552;DHT22;9921;47.186;9.778;2022-07-30T00:46:53;17.20;99.90
19552;DHT22;9921;47.186;9.778;2022-07-30T00:49:21;17.20;99.90
19552;DHT22;9921;47.186;9.778;2022-07-30T00:51:48;17.20;99.90
19552;DHT22;9921;47.186;9.778;2022-07-30T00:54:16;17.20;99.90
19552;DHT22;9921;47.186;9.778;2022-07-30T00:56:43;17.20;99.90
19552;DHT22;9921;47.186;9.778;2022-07-30T00:59:10;17.20;99.90
19552;DHT22;9921;47.186;9.778;2022-07-30T01:01:37;17.20;99.90
19552;DHT22;9921;47.186;9.778;2022-07-30T01:04:04;17.20;99.90
19552;DHT22;9921;47.186;9.778;2022-07-30T01:06:37;17.20;99.90
19552;DHT22;9921;47.186;9.778;2022-07-30T01:09:05;17.20;99.90
19552;DHT22;9921;47.186;9.778;2022-07-30T01:11:35;17.20;99.90
19552;DHT22;9921;47.186;9.778;2022-07-30T01:14:03;17.30;99.90
19552;DHT22;9921;47.186;9.778;2022-07-30T01:16:30;17.40;99.90
19552;DHT22;9921;47.186;9.778;2022-07-30T01:18:58;17.50;99.90
19552;DHT22;9921;47.186;9.778;2022-07-30T01:21:50;17.40;99.90
19552;DHT22;9921;47.186;9.778;2022-07-30T01:24:26;17.30;99.90
19552;DHT22;9921;47.186;9.778;2022-07-30T01:26:57;17.30;99.90
19552;DHT22;9921;47.186;9.778;2022-07-30T01:29:24;17.20;99.90
19552;DHT22;9921;47.186;9.778;2022-07-30T01:31:54;17.10;99.90
19552;DHT22;9921;47.186;9.778;2022-07-30T01:34:26;17.10;99.90
19552;DHT22;9921;47.186;9.778;2022-07-30T01:36:55;17.10;99.90
19552;DHT22;9921;47.186;9.778;2022-07-30T01:39:24;17.20;99.90
19552;DHT22;9921;47.186;9.778;2022-07-30T01:41:52;17.30;99.90
19552;DHT22;9921;47.186;9.778;2022-07-30T01:44:23;17.40;99.90
19552;DHT22;9921;47.186;9.778;2022-07-30T01:46:53;17.40;99.90
19552;DHT22;9921;47.186;9.778;2022-07-30T01:49:21;17.40;99.90
19552;DHT22;9921;47.186;9.778;2022-07-30T01:51:50;17.40;99.90
19552;DHT22;9921;47.186;9.778;2022-07-30T01:54:18;17.40;99.90
19552;DHT22;9921;47.186;9.778;2022-07-30T01:56:47;17.40;99.90
19552;DHT22;9921;47.186;9.778;2022-07-30T01:59:18;17.50;99.90
19552;DHT22;9921;47.186;9.778;2022-07-30T02:01:47;17.50;99.90
19552;DHT22;9921;47.186;9.778;2022-07-30T02:04:14;17.60;99.90
19552;DHT22;9921;47.186;9.778;2022-07-30T02:06:47;17.70;99.90
19552;DHT22;9921;47.186;9.778;2022-07-30T02:09:21;17.70;99.90
19552;DHT22;9921;47.186;9.778;2022-07-30T02:11:51;17.70;99.90
19552;DHT22;9921;47.186;9.778;2022-07-30T02:14:42;17.50;99.90
19552;DHT22;9921;47.186;9.778;2022-07-30T02:17:15;17.60;99.90
19552;DHT22;9921;47.186;9.778;2022-07-30T02:19:44;17.70;99.90
19552;DHT22;9921;47.186;9.778;2022-07-30T02:22:16;17.70;99.90
19552;DHT22;9921;47.186;9.778;2022-07-30T02:24:45;17.70;99.90
19552;DHT22;9921;47.186;9.778;2022-07-30T02:27:23;17.70;99.90
19552;DHT22;9921;47.186;9.778;2022-07-30T02:29:53;17.80;99.90
19552;DHT22;9921;47.186;9.778;2022-07-30T02:32:22;17.80;99.90
19552;DHT22;9921;47.186;9.778;2022-07-30T02:34:54;17.80;99.90
19552;DHT22;9921;47.186;9.778;2022-07-30T02:37:22;17.80;99.90
19552;DHT22;9921;47.186;9.778;2022-07-30T02:39:50;17.70;99.90
19552;DHT22;9921;47.186;9.778;2022-07-30T02:42:20;17.50;99.90
19552;DHT22;9921;47.186;9.778;2022-07-30T02:44:49;17.50;99.90
19552;DHT22;9921;47.186;9.778;2022-07-30T02:47:18;17.40;99.90
19552;DHT22;9921;47.186;9.778;2022-07-30T02:49:50;17.40;99.90
19552;DHT22;9921;47.186;9.778;2022-07-30T02:52:19;17.30;99.90
19552;DHT22;9921;47.186;9.778;2022-07-30T02:54:47;17.30;99.90
19552;DHT22;9921;47.186;9.778;2022-07-30T02:57:16;17.30;99.90
19552;DHT22;9921;47.186;9.778;2022-07-30T02:59:45;17.30;99.90
19552;DHT22;9921;47.186;9.778;2022-07-30T03:02:13;17.40;99.90
19552;DHT22;9921;47.186;9.778;2022-07-30T03:04:40;17.50;99.90
19552;DHT22;9921;47.186;9.778;2022-07-30T03:07:10;17.50;99.90
19552;DHT22;9921;47.186;9.778;2022-07-30T03:09:38;17.50;99.90
19552;DHT22;9921;47.186;9.778;2022-07-30T03:12:08;17.50;99.90
19552;DHT22;9921;47.186;9.778;2022-07-30T03:14:36;17.40;99.90
19552;DHT22;9921;47.186;9.778;2022-07-30T03:17:05;17.40;99.90
19552;DHT22;9921;47.186;9.778;2022-07-30T03:19:36;17.30;99.90
19552;DHT22;9921;47.186;9.778;2022-07-30T03:22:06;17.30;99.90
19552;DHT22;9921;47.186;9.778;2022-07-30T03:24:37;17.20;99.90
19552;DHT22;9921;47.186;9.778;2022-07-30T03:27:05;17.20;99.90
19552;DHT22;9921;47.186;9.778;2022-07-30T03:29:33;17.10;99.90
19552;DHT22;9921;47.186;9.778;2022-07-30T03:32:01;17.10;99.90
19552;DHT22;9921;47.186;9.778;2022-07-30T03:34:31;17.10;99.90
19552;DHT22;9921;47.186;9.778;2022-07-30T03:36:59;17.10;99.90
19552;DHT22;9921;47.186;9.778;2022-07-30T03:39:27;17.20;99.90
19552;DHT22;9921;47.186;9.778;2022-07-30T03:41:56;17.20;99.90
19552;DHT22;9921;47.186;9.778;2022-07-30T03:44:23;17.30;99.90
19552;DHT22;9921;47.186;9.778;2022-07-30T03:46:51;17.30;99.90
19552;DHT22;9921;47.186;9.778;2022-07-30T03:49:19;17.40;99.90
19552;DHT22;9921;47.186;9.778;2022-07-30T03:51:47;17.40;99.90
19552;DHT22;9921;47.186;9.778;2022-07-30T03:54:14;17.50;99.90
19552;DHT22;9921;47.186;9.778;2022-07-30T03:56:42;17.50;99.90
19552;DHT22;9921;47.186;9.778;2022-07-30T03:59:12;17.40;99.90
19552;DHT22;9921;47.186;9.778;2022-07-30T04:01:39;17.50;99.90
19552;DHT22;9921;47.186;9.778;2022-07-30T04:04:07;17.50;99.90
19552;DHT22;9921;47.186;9.778;2022-07-30T04:06:35;17.50;99.90
19552;DHT22;9921;47.186;9.778;2022-07-30T04:09:04;17.50;99.90
19552;DHT22;9921;47.186;9.778;2022-07-30T04:11:32;17.40;99.90
19552;DHT22;9921;47.186;9.778;2022-07-30T04:13:59;17.40;99.90
19552;DHT22;9921;47.186;9.778;2022-07-30T04:16:36;17.40;99.90
19552;DHT22;9921;47.186;9.778;2022-07-30T04:19:06;17.40;99.90
19552;DHT22;9921;47.186;9.778;2022-07-30T04:21:35;17.50;99.90
19552;DHT22;9921;47.186;9.778;2022-07-30T04:24:04;17.50;99.90
19552;DHT22;9921;47.186;9.778;2022-07-30T04:26:34;17.50;99.90
19552;DHT22;9921;47.186;9.778;2022-07-30T04:29:03;17.50;99.90
19552;DHT22;9921;47.186;9.778;2022-07-30T04:31:32;17.50;99.90
19552;DHT22;9921;47.186;9.778;2022-07-30T04:34:00;17.50;99.90
19552;DHT22;9921;47.186;9.778;2022-07-30T04:36:27;17.50;99.90
19552;DHT22;9921;47.186;9.778;2022-07-30T04:38:55;17.50;99.90
19552;DHT22;9921;47.186;9.778;2022-07-30T04:41:22;17.50;99.90
19552;DHT22;9921;47.186;9.778;2022-07-30T04:43:49;17.50;99.90
19552;DHT22;9921;47.186;9.778;2022-07-30T04:46:16;17.60;99.90
19552;DHT22;9921;47.186;9.778;2022-07-30T04:48:45;17.50;99.90
19552;DHT22;9921;47.186;9.778;2022-07-30T04:51:15;17.60;99.90
19552;DHT22;9921;47.186;9.778;2022-07-30T04:53:44;17.60;99.90
19552;DHT22;9921;47.186;9.778;2022-07-30T04:56:15;17.60;99.90
19552;DHT22;9921;47.186;9.778;2022-07-30T04:58:44;17.50;99.90
19552;DHT22;9921;47.186;9.778;2022-07-30T05:01:17;17.50;99.90
19552;DHT22;9921;47.186;9.778;2022-07-30T05:03:46;17.50;99.90
19552;DHT22;9921;47.186;9.778;2022-07-30T05:06:13;17.50;99.90
19552;DHT22;9921;47.186;9.778;2022-07-30T05:08:40;17.50;99.90
19552;DHT22;9921;47.186;9.778;2022-07-30T05:11:10;17.60;99.90
19552;DHT22;9921;47.186;9.778;2022-07-30T05:13:40;17.60;99.90
19552;DHT22;9921;47.186;9.778;2022-07-30T05:16:07;17.70;99.90
19552;DHT22;9921;47.186;9.778;2022-07-30T05:18:34;17.70;99.90
19552;DHT22;9921;47.186;9.778;2022-07-30T05:21:02;17.70;99.90
19552;DHT22;9921;47.186;9.778;2022-07-30T05:23:29;17.70;99.90
19552;DHT22;9921;47.186;9.778;2022-07-30T05:25:56;17.80;99.90
19552;DHT22;9921;47.186;9.778;2022-07-30T05:28:24;17.80;99.90
19552;DHT22;9921;47.186;9.778;2022-07-30T05:30:51;17.90;99.90
19552;DHT22;9921;47.186;9.778;2022-07-30T05:33:18;17.90;99.90
19552;DHT22;9921;47.186;9.778;2022-07-30T05:35:45;18.00;99.90
19552;DHT22;9921;47.186;9.778;2022-07-30T05:38:13;18.00;99.90
19552;DHT22;9921;47.186;9.778;2022-07-30T05:40:40;18.00;99.90
19552;DHT22;9921;47.186;9.778;2022-07-30T05:43:07;17.90;99.90
19552;DHT22;9921;47.186;9.778;2022-07-30T05:45:34;18.00;99.90
19552;DHT22;9921;47.186;9.778;2022-07-30T05:48:01;18.00;99.90
19552;DHT22;9921;47.186;9.778;2022-07-30T05:50:28;17.90;99.90
19552;DHT22;9921;47.186;9.778;2022-07-30T05:52:55;17.90;99.90
19552;DHT22;9921;47.186;9.778;2022-07-30T05:55:24;18.00;99.90
19552;DHT22;9921;47.186;9.778;2022-07-30T05:57:51;18.10;99.90
19552;DHT22;9921;47.186;9.778;2022-07-30T06:00:18;18.10;99.90
19552;DHT22;9921;47.186;9.778;2022-07-30T06:02:45;18.20;99.90
19552;DHT22;9921;47.186;9.778;2022-07-30T06:05:11;18.20;99.90
19552;DHT22;9921;47.186;9.778;2022-07-30T06:07:38;18.20;99.90
19552;DHT22;9921;47.186;9.778;2022-07-30T06:10:06;18.30;99.90
19552;DHT22;9921;47.186;9.778;2022-07-30T06:12:34;18.30;99.90
19552;DHT22;9921;47.186;9.778;2022-07-30T06:15:01;18.30;99.90
19552;DHT22;9921;47.186;9.778;2022-07-30T06:17:28;18.30;99.90
19552;DHT22;9921;47.186;9.778;2022-07-30T06:19:58;18.40;99.90
19552;DHT22;9921;47.186;9.778;2022-07-30T06:22:25;18.40;99.90
19552;DHT22;9921;47.186;9.778;2022-07-30T06:24:52;18.40;99.90
19552;DHT22;9921;47.186;9.778;2022-07-30T06:27:19;18.40;99.90
19552;DHT22;9921;47.186;9.778;2022-07-30T06:29:48;18.50;99.90
19552;DHT22;9921;47.186;9.778;2022-07-30T06:32:14;18.60;99.90
19552;DHT22;9921;47.186;9.778;2022-07-30T06:34:42;18.70;99.90
19552;DHT22;9921;47.186;9.778;2022-07-30T06:37:08;18.70;99.90
19552;DHT22;9921;47.186;9.778;2022-07-30T06:39:35;18.70;99.90
19552;DHT22;9921;47.186;9.778;2022-07-30T06:42:03;18.70;99.90
19552;DHT22;9921;47.186;9.778;2022-07-30T06:44:30;18.70;99.90
19552;DHT22;9921;47.186;9.778;2022-07-30T06:46:58;18.80;99.90
19552;DHT22;9921;47.186;9.778;2022-07-30T06:49:25;18.80;99.90
19552;DHT22;9921;47.186;9.778;2022-07-30T06:51:52;18.80;99.90
19552;DHT22;9921;47.186;9.778;2022-07-30T06:54:18;18.80;99.90
19552;DHT22;9921;47.186;9.778;2022-07-30T06:56:45;18.80;99.90
19552;DHT22;9921;47.186;9.778;2022-07-30T06:59:12;18.90;99.90
19552;DHT22;9921;47.186;9.778;2022-07-30T07:01:39;18.90;99.90
19552;DHT22;9921;47.186;9.778;2022-07-30T07:04:07;19.00;99.90
19552;DHT22;9921;47.186;9.778;2022-07-30T07:06:34;19.00;99.90
19552;DHT22;9921;47.186;9.778;2022-07-30T07:09:02;19.00;99.90
19552;DHT22;9921;47.186;9.778;2022-07-30T07:11:29;19.10;99.90
19552;DHT22;9921;47.186;9.778;2022-07-30T07:13:56;19.20;99.90
19552;DHT22;9921;47.186;9.778;2022-07-30T07:16:23;19.10;99.90
19552;DHT22;9921;47.186;9.778;2022-07-30T07:18:50;19.10;99.90
19552;DHT22;9921;47.186;9.778;2022-07-30T07:21:19;19.20;99.90
19552;DHT22;9921;47.186;9.778;2022-07-30T07:23:46;19.10;99.90
19552;DHT22;9921;47.186;9.778;2022-07-30T07:26:14;19.10;99.90
19552;DHT22;9921;47.186;9.778;2022-07-30T07:28:41;19.20;99.90
19552;DHT22;9921;47.186;9.778;2022-07-30T07:31:09;19.20;99.90
19552;DHT22;9921;47.186;9.778;2022-07-30T07:33:36;19.00;99.90
19552;DHT22;9921;47.186;9.778;2022-07-30T07:36:04;19.10;99.90
19552;DHT22;9921;47.186;9.778;2022-07-30T07:38:32;19.10;99.90
19552;DHT22;9921;47.186;9.778;2022-07-30T07:41:01;19.20;99.90
19552;DHT22;9921;47.186;9.778;2022-07-30T07:43:28;19.30;99.90
19552;DHT22;9921;47.186;9.778;2022-07-30T07:45:54;19.50;99.90
19552;DHT22;9921;47.186;9.778;2022-07-30T07:48:21;19.60;99.90
19552;DHT22;9921;47.186;9.778;2022-07-30T07:50:48;19.70;99.90
19552;DHT22;9921;47.186;9.778;2022-07-30T07:53:15;19.80;99.90
19552;DHT22;9921;47.186;9.778;2022-07-30T07:55:44;19.90;99.90
19552;DHT22;9921;47.186;9.778;2022-07-30T07:58:14;20.00;99.90
19552;DHT22;9921;47.186;9.778;2022-07-30T08:00:44;20.00;99.90
19552;DHT22;9921;47.186;9.778;2022-07-30T08:03:11;20.00;99.90
19552;DHT22;9921;47.186;9.778;2022-07-30T08:05:37;20.10;99.90
19552;DHT22;9921;47.186;9.778;2022-07-30T08:08:05;20.10;99.90
19552;DHT22;9921;47.186;9.778;2022-07-30T08:10:32;20.30;99.90
19552;DHT22;9921;47.186;9.778;2022-07-30T08:13:00;20.30;99.90
19552;DHT22;9921;47.186;9.778;2022-07-30T08:15:28;20.20;99.90
19552;DHT22;9921;47.186;9.778;2022-07-30T08:17:56;20.30;99.90
19552;DHT22;9921;47.186;9.778;2022-07-30T08:20:23;20.40;99.90
19552;DHT22;9921;47.186;9.778;2022-07-30T08:22:50;20.60;99.90
19552;DHT22;9921;47.186;9.778;2022-07-30T08:25:17;20.90;99.90
19552;DHT22;9921;47.186;9.778;2022-07-30T08:27:45;21.10;99.90
19552;DHT22;9921;47.186;9.778;2022-07-30T08:30:13;21.30;99.90
19552;DHT22;9921;47.186;9.778;2022-07-30T08:32:40;21.50;99.90
19552;DHT22;9921;47.186;9.778;2022-07-30T08:35:07;21.50;99.90
19552;DHT22;9921;47.186;9.778;2022-07-30T08:37:35;21.60;99.90
19552;DHT22;9921;47.186;9.778;2022-07-30T08:40:03;21.60;99.90
19552;DHT22;9921;47.186;9.778;2022-07-30T08:42:33;21.70;99.90
19552;DHT22;9921;47.186;9.778;2022-07-30T08:45:00;21.80;99.90
19552;DHT22;9921;47.186;9.778;2022-07-30T08:47:30;21.90;99.90
19552;DHT22;9921;47.186;9.778;2022-07-30T08:49:58;21.90;99.90
19552;DHT22;9921;47.186;9.778;2022-07-30T08:52:30;22.00;99.90
19552;DHT22;9921;47.186;9.778;2022-07-30T08:54:57;22.10;99.90
19552;DHT22;9921;47.186;9.778;2022-07-30T08:57:27;22.20;99.90
19552;DHT22;9921;47.186;9.778;2022-07-30T08:59:55;22.40;99.90
19552;DHT22;9921;47.186;9.778;2022-07-30T09:02:22;22.50;99.90
19552;DHT22;9921;47.186;9.778;2022-07-30T09:04:50;22.50;99.90
19552;DHT22;9921;47.186;9.778;2022-07-30T09:07:18;22.50;99.90
19552;DHT22;9921;47.186;9.778;2022-07-30T09:09:45;22.60;99.90
19552;DHT22;9921;47.186;9.778;2022-07-30T09:12:31;22.70;99.90
19552;DHT22;9921;47.186;9.778;2022-07-30T09:15:06;22.80;99.90
19552;DHT22;9921;47.186;9.778;2022-07-30T09:17:50;22.90;99.90
19552;DHT22;9921;47.186;9.778;2022-07-30T09:20:19;23.00;99.90
19552;DHT22;9921;47.186;9.778;2022-07-30T09:22:49;23.10;99.90
19552;DHT22;9921;47.186;9.778;2022-07-30T09:25:32;23.20;99.90
19552;DHT22;9921;47.186;9.778;2022-07-30T09:27:59;23.40;99.90
19552;DHT22;9921;47.186;9.778;2022-07-30T09:30:27;23.60;99.90
19552;DHT22;9921;47.186;9.778;2022-07-30T09:32:55;23.70;99.90
19552;DHT22;9921;47.186;9.778;2022-07-30T09:35:24;23.80;99.90
19552;DHT22;9921;47.186;9.778;2022-07-30T09:37:57;24.00;99.90
19552;DHT22;9921;47.186;9.778;2022-07-30T09:40:25;24.00;99.90
19552;DHT22;9921;47.186;9.778;2022-07-30T09:43:01;24.10;99.90
19552;DHT22;9921;47.186;9.778;2022-07-30T09:45:29;24.20;99.90
19552;DHT22;9921;47.186;9.778;2022-07-30T09:47:56;24.20;99.90
19552;DHT22;9921;47.186;9.778;2022-07-30T09:50:24;24.20;99.90
19552;DHT22;9921;47.186;9.778;2022-07-30T09:52:53;24.30;99.90
19552;DHT22;9921;47.186;9.778;2022-07-30T09:55:31;24.30;99.90
19552;DHT22;9921;47.186;9.778;2022-07-30T09:57:59;24.50;99.90
19552;DHT22;9921;47.186;9.778;2022-07-30T10:00:29;24.50;99.90
19552;DHT22;9921;47.186;9.778;2022-07-30T10:02:56;24.60;99.90
19552;DHT22;9921;47.186;9.778;2022-07-30T10:05:26;24.50;99.90
19552;DHT22;9921;47.186;9.778;2022-07-30T10:07:56;24.30;99.90
19552;DHT22;9921;47.186;9.778;2022-07-30T10:10:28;24.20;99.90
19552;DHT22;9921;47.186;9.778;2022-07-30T10:12:57;24.30;99.90
19552;DHT22;9921;47.186;9.778;2022-07-30T10:15:28;24.30;99.90
19552;DHT22;9921;47.186;9.778;2022-07-30T10:17:56;24.40;99.90
19552;DHT22;9921;47.186;9.778;2022-07-30T10:20:25;24.40;99.90
19552;DHT22;9921;47.186;9.778;2022-07-30T10:22:53;24.60;99.90
19552;DHT22;9921;47.186;9.778;2022-07-30T10:25:23;24.80;99.90
19552;DHT22;9921;47.186;9.778;2022-07-30T10:27:51;25.00;99.90
19552;DHT22;9921;47.186;9.778;2022-07-30T10:30:18;25.10;99.90
19552;DHT22;9921;47.186;9.778;2022-07-30T10:32:46;25.30;99.90
19552;DHT22;9921;47.186;9.778;2022-07-30T10:35:12;25.40;99.90
19552;DHT22;9921;47.186;9.778;2022-07-30T10:37:44;25.50;99.90
19552;DHT22;9921;47.186;9.778;2022-07-30T10:40:29;25.60;99.90
19552;DHT22;9921;47.186;9.778;2022-07-30T10:43:12;25.90;99.90
19552;DHT22;9921;47.186;9.778;2022-07-30T10:45:47;26.20;99.90
19552;DHT22;9921;47.186;9.778;2022-07-30T10:48:16;26.40;99.90
19552;DHT22;9921;47.186;9.778;2022-07-30T10:50:52;26.50;99.90
19552;DHT22;9921;47.186;9.778;2022-07-30T10:53:34;26.40;99.90
19552;DHT22;9921;47.186;9.778;2022-07-30T10:56:12;26.40;99.90
19552;DHT22;9921;47.186;9.778;2022-07-30T10:59:00;26.50;99.90
19552;DHT22;9921;47.186;9.778;2022-07-30T11:04:28;26.80;99.90
19552;DHT22;9921;47.186;9.778;2022-07-30T11:07:25;26.90;99.90
19552;DHT22;9921;47.186;9.778;2022-07-30T11:09:56;26.90;99.90
19552;DHT22;9921;47.186;9.778;2022-07-30T11:12:53;26.90;99.90
19552;DHT22;9921;47.186;9.778;2022-07-30T11:15:21;26.80;99.90
19552;DHT22;9921;47.186;9.778;2022-07-30T11:18:02;26.70;99.90
19552;DHT22;9921;47.186;9.778;2022-07-30T11:20:30;26.70;99.90
19552;DHT22;9921;47.186;9.778;2022-07-30T11:25:57;26.80;99.90
19552;DHT22;9921;47.186;9.778;2022-07-30T11:28:39;26.90;99.90
19552;DHT22;9921;47.186;9.778;2022-07-30T11:31:31;26.90;99.90
19552;DHT22;9921;47.186;9.778;2022-07-30T11:34:24;27.00;99.90
19552;DHT22;9921;47.186;9.778;2022-07-30T11:37:05;26.90;99.90
19552;DHT22;9921;47.186;9.778;2022-07-30T11:40:09;26.40;99.90
19552;DHT22;9921;47.186;9.778;2022-07-30T11:42:39;26.10;99.90
19552;DHT22;9921;47.186;9.778;2022-07-30T11:45:26;25.60;99.90
19552;DHT22;9921;47.186;9.778;2022-07-30T11:47:56;25.20;99.90
19552;DHT22;9921;47.186;9.778;2022-07-30T11:50:26;24.80;99.90
19552;DHT22;9921;47.186;9.778;2022-07-30T11:52:55;24.70;99.90
19552;DHT22;9921;47.186;9.778;2022-07-30T11:55:24;25.00;99.90
19552;DHT22;9921;47.186;9.778;2022-07-30T11:57:53;25.50;99.90
19552;DHT22;9921;47.186;9.778;2022-07-30T12:00:20;25.70;99.90
19552;DHT22;9921;47.186;9.778;2022-07-30T12:02:48;26.10;99.90
19552;DHT22;9921;47.186;9.778;2022-07-30T12:05:15;26.20;99.90
19552;DHT22;9921;47.186;9.778;2022-07-30T12:07:48;26.10;99.90
19552;DHT22;9921;47.186;9.778;2022-07-30T12:10:16;26.00;99.90
19552;DHT22;9921;47.186;9.778;2022-07-30T12:12:44;25.90;99.90
19552;DHT22;9921;47.186;9.778;2022-07-30T12:15:28;25.70;99.90
19552;DHT22;9921;47.186;9.778;2022-07-30T12:17:55;25.50;99.90
19552;DHT22;9921;47.186;9.778;2022-07-30T12:20:22;25.50;99.90
19552;DHT22;9921;47.186;9.778;2022-07-30T12:22:49;25.40;99.90
19552;DHT22;9921;47.186;9.778;2022-07-30T12:25:16;25.30;99.90
19552;DHT22;9921;47.186;9.778;2022-07-30T12:27:45;25.30;99.90
19552;DHT22;9921;47.186;9.778;2022-07-30T12:30:14;25.30;99.90
19552;DHT22;9921;47.186;9.778;2022-07-30T12:32:42;25.20;99.90
19552;DHT22;9921;47.186;9.778;2022-07-30T12:35:10;25.20;99.90
19552;DHT22;9921;47.186;9.778;2022-07-30T12:37:37;25.00;99.90
19552;DHT22;9921;47.186;9.778;2022-07-30T12:40:08;25.00;99.90
19552;DHT22;9921;47.186;9.778;2022-07-30T12:42:36;24.90;99.90
19552;DHT22;9921;47.186;9.778;2022-07-30T12:45:05;25.00;99.90
19552;DHT22;9921;47.186;9.778;2022-07-30T12:47:34;25.20;99.90
19552;DHT22;9921;47.186;9.778;2022-07-30T12:50:01;25.10;99.90
19552;DHT22;9921;47.186;9.778;2022-07-30T12:52:32;25.00;99.90
19552;DHT22;9921;47.186;9.778;2022-07-30T12:55:03;24.90;99.90
19552;DHT22;9921;47.186;9.778;2022-07-30T12:57:53;24.90;99.90
19552;DHT22;9921;47.186;9.778;2022-07-30T13:00:21;24.90;99.90
19552;DHT22;9921;47.186;9.778;2022-07-30T13:02:49;24.90;99.90
19552;DHT22;9921;47.186;9.778;2022-07-30T13:05:16;24.80;99.90
19552;DHT22;9921;47.186;9.778;2022-07-30T13:07:53;24.70;99.90
19552;DHT22;9921;47.186;9.778;2022-07-30T13:10:20;24.60;99.90
19552;DHT22;9921;47.186;9.778;2022-07-30T13:12:47;24.50;99.90
19552;DHT22;9921;47.186;9.778;2022-07-30T13:15:17;24.40;99.90
19552;DHT22;9921;47.186;9.778;2022-07-30T13:17:44;24.20;99.90
19552;DHT22;9921;47.186;9.778;2022-07-30T13:20:14;24.20;99.90
19552;DHT22;9921;47.186;9.778;2022-07-30T13:22:41;24.10;99.90
19552;DHT22;9921;47.186;9.778;2022-07-30T13:25:09;23.90;99.90
19552;DHT22;9921;47.186;9.778;2022-07-30T13:27:37;23.80;99.90
19552;DHT22;9921;47.186;9.778;2022-07-30T13:30:05;23.70;99.90
19552;DHT22;9921;47.186;9.778;2022-07-30T13:32:32;23.60;99.90
19552;DHT22;9921;47.186;9.778;2022-07-30T13:34:59;23.70;99.90
19552;DHT22;9921;47.186;9.778;2022-07-30T13:37:27;23.80;99.90
19552;DHT22;9921;47.186;9.778;2022-07-30T13:39:54;23.80;99.90
19552;DHT22;9921;47.186;9.778;2022-07-30T13:42:21;23.90;99.90
19552;DHT22;9921;47.186;9.778;2022-07-30T13:44:48;24.00;99.90
19552;DHT22;9921;47.186;9.778;2022-07-30T13:47:15;24.20;99.90
19552;DHT22;9921;47.186;9.778;2022-07-30T13:49:42;24.50;99.90
19552;DHT22;9921;47.186;9.778;2022-07-30T13:52:11;24.60;99.90
19552;DHT22;9921;47.186;9.778;2022-07-30T13:54:39;24.60;99.90
19552;DHT22;9921;47.186;9.778;2022-07-30T13:57:06;24.60;99.90
19552;DHT22;9921;47.186;9.778;2022-07-30T13:59:33;24.50;99.90
19552;DHT22;9921;47.186;9.778;2022-07-30T14:02:00;24.40;99.90
19552;DHT22;9921;47.186;9.778;2022-07-30T14:04:28;24.30;99.90
19552;DHT22;9921;47.186;9.778;2022-07-30T14:06:56;24.20;99.90
19552;DHT22;9921;47.186;9.778;2022-07-30T14:09:23;24.00;99.90
19552;DHT22;9921;47.186;9.778;2022-07-30T14:11:52;23.90;99.90
19552;DHT22;9921;47.186;9.778;2022-07-30T14:14:19;23.80;99.90
19552;DHT22;9921;47.186;9.778;2022-07-30T14:16:47;23.70;99.90
19552;DHT22;9921;47.186;9.778;2022-07-30T14:19:15;23.60;99.90
19552;DHT22;9921;47.186;9.778;2022-07-30T14:21:42;23.50;99.90
19552;DHT22;9921;47.186;9.778;2022-07-30T14:24:09;23.40;99.90
19552;DHT22;9921;47.186;9.778;2022-07-30T14:26:37;23.50;99.90
19552;DHT22;9921;47.186;9.778;2022-07-30T14:29:05;23.50;99.90
19552;DHT22;9921;47.186;9.778;2022-07-30T14:31:32;23.60;99.90
19552;DHT22;9921;47.186;9.778;2022-07-30T14:33:59;23.80;99.90
19552;DHT22;9921;47.186;9.778;2022-07-30T14:36:26;23.90;99.90
19552;DHT22;9921;47.186;9.778;2022-07-30T14:38:55;24.00;99.90
19552;DHT22;9921;47.186;9.778;2022-07-30T14:41:22;24.00;99.90
19552;DHT22;9921;47.186;9.778;2022-07-30T14:43:49;24.20;99.90
19552;DHT22;9921;47.186;9.778;2022-07-30T14:46:18;24.20;99.90
19552;DHT22;9921;47.186;9.778;2022-07-30T14:48:45;24.20;99.90
19552;DHT22;9921;47.186;9.778;2022-07-30T14:51:12;24.20;99.90
19552;DHT22;9921;47.186;9.778;2022-07-30T14:53:39;24.30;99.90
19552;DHT22;9921;47.186;9.778;2022-07-30T14:56:06;24.20;99.90
19552;DHT22;9921;47.186;9.778;2022-07-30T14:58:34;24.20;99.90
19552;DHT22;9921;47.186;9.778;2022-07-30T15:01:00;24.30;99.90
19552;DHT22;9921;47.186;9.778;2022-07-30T15:03:33;24.20;99.90
19552;DHT22;9921;47.186;9.778;2022-07-30T15:06:00;24.20;99.90
19552;DHT22;9921;47.186;9.778;2022-07-30T15:08:27;24.20;99.90
19552;DHT22;9921;47.186;9.778;2022-07-30T15:10:55;24.30;99.90
19552;DHT22;9921;47.186;9.778;2022-07-30T15:13:22;24.30;99.90
19552;DHT22;9921;47.186;9.778;2022-07-30T15:15:48;24.20;99.90
19552;DHT22;9921;47.186;9.778;2022-07-30T15:18:16;24.10;99.90
19552;DHT22;9921;47.186;9.778;2022-07-30T15:20:44;24.00;99.90
19552;DHT22;9921;47.186;9.778;2022-07-30T15:23:12;24.00;99.90
19552;DHT22;9921;47.186;9.778;2022-07-30T15:25:39;24.10;99.90
19552;DHT22;9921;47.186;9.778;2022-07-30T15:28:06;24.10;99.90
19552;DHT22;9921;47.186;9.778;2022-07-30T15:30:33;24.20;99.90
19552;DHT22;9921;47.186;9.778;2022-07-30T15:33:00;24.40;99.90
19552;DHT22;9921;47.186;9.778;2022-07-30T15:35:27;24.40;99.90
19552;DHT22;9921;47.186;9.778;2022-07-30T15:37:55;24.40;99.90
19552;DHT22;9921;47.186;9.778;2022-07-30T15:40:22;24.30;99.90
19552;DHT22;9921;47.186;9.778;2022-07-30T15:42:49;24.20;99.90
19552;DHT22;9921;47.186;9.778;2022-07-30T15:45:16;24.00;99.90
19552;DHT22;9921;47.186;9.778;2022-07-30T15:47:44;23.90;99.90
19552;DHT22;9921;47.186;9.778;2022-07-30T15:50:11;23.80;99.90
19552;DHT22;9921;47.186;9.778;2022-07-30T15:52:39;23.70;99.90
19552;DHT22;9921;47.186;9.778;2022-07-30T15:55:09;23.60;99.90
19552;DHT22;9921;47.186;9.778;2022-07-30T15:57:36;23.50;99.90
19552;DHT22;9921;47.186;9.778;2022-07-30T16:00:05;23.50;99.90
19552;DHT22;9921;47.186;9.778;2022-07-30T16:02:32;23.40;99.90